createdAt,value
2023-04-01T00:08:40.248Z,9.68
2023-04-01T00:23:40.393Z,9.43
2023-04-01T00:38:40.828Z,9.40
2023-04-01T00:53:40.542Z,9.31
2023-04-01T01:08:40.646Z,9.42
2023-04-01T01:23:41.217Z,9.36
2023-04-01T01:38:40.852Z,9.42
2023-04-01T01:53:40.953Z,9.38
2023-04-01T02:08:41.030Z,9.13
2023-04-01T02:23:41.643Z,9.39
2023-04-01T02:38:42.198Z,9.26
2023-04-01T02:53:42.383Z,9.43
2023-04-01T03:08:42.404Z,9.29
2023-04-01T03:23:42.997Z,9.24
2023-04-01T03:38:42.602Z,9.21
2023-04-01T03:53:42.696Z,9.14
2023-04-01T04:08:42.784Z,9.08
2023-04-01T04:23:42.931Z,9.23
2023-04-01T04:38:42.991Z,9.39
2023-04-01T04:53:43.080Z,9.36
2023-04-01T05:08:43.605Z,9.29
2023-04-01T05:23:43.339Z,9.38
2023-04-01T05:38:43.747Z,9.51
2023-04-01T05:53:43.464Z,9.66
2023-04-01T06:08:43.540Z,9.66
2023-04-01T06:23:43.709Z,9.79
2023-04-01T06:38:43.732Z,9.87
2023-04-01T06:53:43.846Z,9.79
2023-04-01T07:08:43.912Z,9.57
2023-04-01T07:23:44.106Z,9.29
2023-04-01T07:38:44.552Z,8.92
2023-04-01T07:53:44.192Z,8.84
2023-04-01T08:08:44.258Z,8.44
2023-04-01T08:23:44.427Z,8.59
2023-04-01T08:38:44.424Z,8.66
2023-04-01T08:53:44.558Z,8.74
2023-04-01T09:08:45.068Z,8.94
2023-04-01T09:23:44.761Z,9.05
2023-04-01T09:38:44.847Z,9.21
2023-04-01T09:53:44.958Z,9.38
2023-04-01T10:08:45.032Z,9.29
2023-04-01T10:23:45.180Z,9.10
2023-04-01T10:38:45.195Z,9.31
2023-04-01T10:53:45.329Z,9.23
2023-04-01T11:08:45.387Z,9.18
2023-04-01T11:23:49.306Z,9.21
2023-04-01T11:38:51.008Z,8.98
2023-04-01T11:53:50.672Z,8.80
2023-04-01T12:08:50.837Z,8.91
2023-04-01T12:23:51.205Z,8.87
2023-04-01T12:38:51.065Z,8.81
2023-04-01T12:53:51.771Z,8.47
2023-04-01T13:08:52.632Z,8.16
2023-04-01T13:23:53.391Z,7.83
2023-04-01T13:38:54.021Z,7.64
2023-04-01T13:53:54.623Z,7.80
2023-04-01T14:08:54.854Z,7.68
2023-04-01T14:23:55.508Z,7.52
2023-04-01T14:38:56.025Z,7.25
2023-04-01T14:53:56.583Z,7.13
2023-04-01T15:08:56.941Z,6.79
2023-04-01T15:23:57.573Z,6.87
2023-04-01T15:38:58.319Z,6.66
2023-04-01T15:53:58.588Z,6.44
2023-04-01T16:08:58.784Z,6.30
2023-04-01T16:23:59.492Z,6.21
2023-04-01T16:39:00.089Z,6.01
2023-04-01T16:54:00.113Z,6.06
2023-04-01T17:09:00.227Z,5.82
2023-04-01T17:24:00.343Z,5.63
2023-04-01T17:39:00.391Z,5.43
2023-04-01T17:54:00.463Z,5.07
2023-04-01T18:09:00.620Z,4.89
2023-04-01T18:24:02.628Z,4.67
2023-04-01T18:39:02.837Z,4.60
2023-04-01T18:54:02.933Z,4.58
2023-04-01T19:09:03.036Z,4.40
2023-04-01T19:24:03.816Z,4.06
2023-04-01T19:39:04.980Z,4.16
2023-04-01T19:54:05.946Z,4.15
2023-04-01T20:09:05.683Z,3.96
2023-04-01T20:24:05.824Z,3.78
2023-04-01T20:39:05.863Z,3.91
2023-04-01T20:54:05.968Z,3.88
2023-04-01T21:09:06.110Z,3.60
2023-04-01T21:24:06.556Z,3.69
2023-04-01T21:39:06.696Z,3.57
2023-04-01T21:54:07.187Z,3.40
2023-04-01T22:09:06.889Z,3.40
2023-04-01T22:24:06.983Z,3.52
2023-04-01T22:39:07.151Z,3.36
2023-04-01T22:54:07.609Z,3.39
2023-04-01T23:09:07.538Z,3.33
2023-04-01T23:24:07.858Z,3.24
2023-04-01T23:39:08.019Z,3.15
2023-04-01T23:54:08.569Z,3.18
